sensor_id;sensor_type;location;lat;lon;timestamp;temperature;humidity
32536;DHT22;18974;50.838;4.636;2023-09-19T00:00:20;16.40;99.90
32536;DHT22;18974;50.838;4.636;2023-09-19T00:02:53;16.40;99.90
32536;DHT22;18974;50.838;4.636;2023-09-19T00:05:19;16.30;99.90
32536;DHT22;18974;50.838;4.636;2023-09-19T00:07:50;16.30;99.90
32536;DHT22;18974;50.838;4.636;2023-09-19T00:10:16;16.30;99.90
32536;DHT22;18974;50.838;4.636;2023-09-19T00:12:45;16.30;99.90
32536;DHT22;18974;50.838;4.636;2023-09-19T00:15:11;16.30;99.90
32536;DHT22;18974;50.838;4.636;2023-09-19T00:17:37;16.30;99.90
32536;DHT22;18974;50.838;4.636;2023-09-19T00:20:04;16.30;99.90
32536;DHT22;18974;50.838;4.636;2023-09-19T00:22:41;16.30;99.90
32536;DHT22;18974;50.838;4.636;2023-09-19T00:25:08;16.30;99.90
32536;DHT22;18974;50.838;4.636;2023-09-19T00:27:35;16.30;99.90
32536;DHT22;18974;50.838;4.636;2023-09-19T00:30:05;16.30;99.90
32536;DHT22;18974;50.838;4.636;2023-09-19T00:32:30;16.20;99.90
32536;DHT22;18974;50.838;4.636;2023-09-19T00:34:56;16.30;99.90
32536;DHT22;18974;50.838;4.636;2023-09-19T00:37:22;16.30;99.90
32536;DHT22;18974;50.838;4.636;2023-09-19T00:39:47;16.30;99.90
32536;DHT22;18974;50.838;4.636;2023-09-19T00:42:22;16.30;99.90
32536;DHT22;18974;50.838;4.636;2023-09-19T00:44:48;16.30;99.90
32536;DHT22;18974;50.838;4.636;2023-09-19T00:47:17;16.20;99.90
32536;DHT22;18974;50.838;4.636;2023-09-19T00:49:46;16.30;99.90
32536;DHT22;18974;50.838;4.636;2023-09-19T00:52:14;16.20;99.90
32536;DHT22;18974;50.838;4.636;2023-09-19T00:54:41;16.10;99.90
32536;DHT22;18974;50.838;4.636;2023-09-19T00:57:07;16.10;99.90
32536;DHT22;18974;50.838;4.636;2023-09-19T00:59:35;16.10;99.90
32536;DHT22;18974;50.838;4.636;2023-09-19T01:02:02;16.10;99.90
32536;DHT22;18974;50.838;4.636;2023-09-19T01:04:29;16.00;99.90
32536;DHT22;18974;50.838;4.636;2023-09-19T01:06:55;16.10;99.90
32536;DHT22;18974;50.838;4.636;2023-09-19T01:09:23;16.10;99.90
32536;DHT22;18974;50.838;4.636;2023-09-19T01:11:50;16.10;99.90
32536;DHT22;18974;50.838;4.636;2023-09-19T01:16:53;16.00;99.90
32536;DHT22;18974;50.838;4.636;2023-09-19T01:19:45;16.00;99.90
32536;DHT22;18974;50.838;4.636;2023-09-19T01:22:26;15.90;99.90
32536;DHT22;18974;50.838;4.636;2023-09-19T01:30:55;16.00;99.90
32536;DHT22;18974;50.838;4.636;2023-09-19T01:33:23;15.90;99.90
32536;DHT22;18974;50.838;4.636;2023-09-19T01:35:49;15.90;99.90
32536;DHT22;18974;50.838;4.636;2023-09-19T01:38:16;15.90;99.90
32536;DHT22;18974;50.838;4.636;2023-09-19T01:40:43;15.90;99.90
32536;DHT22;18974;50.838;4.636;2023-09-19T01:43:22;15.80;99.90
32536;DHT22;18974;50.838;4.636;2023-09-19T01:46:04;15.80;99.90
32536;DHT22;18974;50.838;4.636;2023-09-19T01:48:41;15.80;99.90
32536;DHT22;18974;50.838;4.636;2023-09-19T01:51:14;15.80;99.90
32536;DHT22;18974;50.838;4.636;2023-09-19T01:53:50;15.70;99.90
32536;DHT22;18974;50.838;4.636;2023-09-19T01:56:25;15.70;99.90
32536;DHT22;18974;50.838;4.636;2023-09-19T01:58:56;15.70;99.90
32536;DHT22;18974;50.838;4.636;2023-09-19T02:01:25;15.70;99.90
32536;DHT22;18974;50.838;4.636;2023-09-19T02:03:52;15.70;99.90
32536;DHT22;18974;50.838;4.636;2023-09-19T02:06:19;15.70;99.90
32536;DHT22;18974;50.838;4.636;2023-09-19T02:08:46;15.60;99.90
32536;DHT22;18974;50.838;4.636;2023-09-19T02:11:12;15.60;99.90
32536;DHT22;18974;50.838;4.636;2023-09-19T02:13:38;15.60;99.90
32536;DHT22;18974;50.838;4.636;2023-09-19T02:16:05;15.60;99.90
32536;DHT22;18974;50.838;4.636;2023-09-19T02:18:31;15.70;99.90
32536;DHT22;18974;50.838;4.636;2023-09-19T02:21:01;15.60;99.90
32536;DHT22;18974;50.838;4.636;2023-09-19T02:23:27;15.50;99.90
32536;DHT22;18974;50.838;4.636;2023-09-19T02:25:56;15.60;99.90
32536;DHT22;18974;50.838;4.636;2023-09-19T02:28:31;15.60;99.90
32536;DHT22;18974;50.838;4.636;2023-09-19T02:30:58;15.60;99.90
32536;DHT22;18974;50.838;4.636;2023-09-19T02:33:24;15.60;99.90
32536;DHT22;18974;50.838;4.636;2023-09-19T02:35:49;15.60;99.90
32536;DHT22;18974;50.838;4.636;2023-09-19T02:38:16;15.70;99.90
32536;DHT22;18974;50.838;4.636;2023-09-19T02:40:46;15.60;99.90
32536;DHT22;18974;50.838;4.636;2023-09-19T02:43:12;15.70;99.90
32536;DHT22;18974;50.838;4.636;2023-09-19T02:45:37;15.80;99.90
32536;DHT22;18974;50.838;4.636;2023-09-19T02:48:03;15.70;99.90
32536;DHT22;18974;50.838;4.636;2023-09-19T02:50:29;15.70;99.90
32536;DHT22;18974;50.838;4.636;2023-09-19T02:52:55;15.70;99.90
32536;DHT22;18974;50.838;4.636;2023-09-19T02:55:21;15.70;99.90
32536;DHT22;18974;50.838;4.636;2023-09-19T02:57:52;15.70;99.90
32536;DHT22;18974;50.838;4.636;2023-09-19T03:00:21;15.80;99.90
32536;DHT22;18974;50.838;4.636;2023-09-19T03:02:56;15.80;99.90
32536;DHT22;18974;50.838;4.636;2023-09-19T03:05:23;15.90;99.90
32536;DHT22;18974;50.838;4.636;2023-09-19T03:07:49;16.00;99.90
32536;DHT22;18974;50.838;4.636;2023-09-19T03:10:17;16.00;99.90
32536;DHT22;18974;50.838;4.636;2023-09-19T03:12:43;16.00;99.90
32536;DHT22;18974;50.838;4.636;2023-09-19T03:15:09;16.00;99.90
32536;DHT22;18974;50.838;4.636;2023-09-19T03:17:35;15.90;99.90
32536;DHT22;18974;50.838;4.636;2023-09-19T03:20:01;15.80;99.90
32536;DHT22;18974;50.838;4.636;2023-09-19T03:22:27;15.80;99.90
32536;DHT22;18974;50.838;4.636;2023-09-19T03:24:53;15.80;99.90
32536;DHT22;18974;50.838;4.636;2023-09-19T03:27:19;15.90;99.90
32536;DHT22;18974;50.838;4.636;2023-09-19T03:29:46;15.90;99.90
32536;DHT22;18974;50.838;4.636;2023-09-19T03:32:12;15.90;99.90
32536;DHT22;18974;50.838;4.636;2023-09-19T03:34:38;15.90;99.90
32536;DHT22;18974;50.838;4.636;2023-09-19T03:37:09;15.90;99.90
32536;DHT22;18974;50.838;4.636;2023-09-19T03:39:35;15.90;99.90
32536;DHT22;18974;50.838;4.636;2023-09-19T03:42:01;15.90;99.90
32536;DHT22;18974;50.838;4.636;2023-09-19T03:44:29;16.00;99.90
32536;DHT22;18974;50.838;4.636;2023-09-19T03:46:56;16.00;99.90
32536;DHT22;18974;50.838;4.636;2023-09-19T03:49:22;15.90;99.90
32536;DHT22;18974;50.838;4.636;2023-09-19T03:51:48;16.00;99.90
32536;DHT22;18974;50.838;4.636;2023-09-19T03:54:13;16.00;99.90
32536;DHT22;18974;50.838;4.636;2023-09-19T03:56:39;15.90;99.90
32536;DHT22;18974;50.838;4.636;2023-09-19T03:59:05;15.90;99.90
32536;DHT22;18974;50.838;4.636;2023-09-19T04:01:30;15.80;99.90
32536;DHT22;18974;50.838;4.636;2023-09-19T04:03:59;15.80;99.90
32536;DHT22;18974;50.838;4.636;2023-09-19T04:06:36;15.70;99.90
32536;DHT22;18974;50.838;4.636;2023-09-19T04:09:04;15.60;99.90
32536;DHT22;18974;50.838;4.636;2023-09-19T04:11:33;15.60;99.90
32536;DHT22;18974;50.838;4.636;2023-09-19T04:13:58;15.40;99.90
32536;DHT22;18974;50.838;4.636;2023-09-19T04:16:25;15.40;99.90
32536;DHT22;18974;50.838;4.636;2023-09-19T04:18:50;15.30;99.90
32536;DHT22;18974;50.838;4.636;2023-09-19T04:21:16;15.20;99.90
32536;DHT22;18974;50.838;4.636;2023-09-19T04:23:42;15.30;99.90
32536;DHT22;18974;50.838;4.636;2023-09-19T04:26:08;15.30;99.90
32536;DHT22;18974;50.838;4.636;2023-09-19T04:28:34;15.20;99.90
32536;DHT22;18974;50.838;4.636;2023-09-19T04:31:00;15.20;99.90
32536;DHT22;18974;50.838;4.636;2023-09-19T04:33:26;15.30;99.90
32536;DHT22;18974;50.838;4.636;2023-09-19T04:35:55;15.20;99.90
32536;DHT22;18974;50.838;4.636;2023-09-19T04:38:21;15.20;99.90
32536;DHT22;18974;50.838;4.636;2023-09-19T04:40:47;15.20;99.90
32536;DHT22;18974;50.838;4.636;2023-09-19T04:43:13;15.20;99.90
32536;DHT22;18974;50.838;4.636;2023-09-19T04:45:39;15.10;99.90
32536;DHT22;18974;50.838;4.636;2023-09-19T04:48:07;15.10;99.90
32536;DHT22;18974;50.838;4.636;2023-09-19T04:50:34;15.20;99.90
32536;DHT22;18974;50.838;4.636;2023-09-19T04:53:00;15.10;99.90
32536;DHT22;18974;50.838;4.636;2023-09-19T04:55:26;15.10;99.90
32536;DHT22;18974;50.838;4.636;2023-09-19T04:57:53;15.20;99.90
32536;DHT22;18974;50.838;4.636;2023-09-19T05:00:20;15.20;99.90
32536;DHT22;18974;50.838;4.636;2023-09-19T05:02:55;15.20;99.90
32536;DHT22;18974;50.838;4.636;2023-09-19T05:05:24;15.20;99.90
32536;DHT22;18974;50.838;4.636;2023-09-19T05:07:50;15.10;99.90
32536;DHT22;18974;50.838;4.636;2023-09-19T05:10:17;15.10;99.90
32536;DHT22;18974;50.838;4.636;2023-09-19T05:12:46;15.10;99.90
32536;DHT22;18974;50.838;4.636;2023-09-19T05:15:14;15.10;99.90
32536;DHT22;18974;50.838;4.636;2023-09-19T05:17:50;15.10;99.90
32536;DHT22;18974;50.838;4.636;2023-09-19T05:20:17;15.10;99.90
32536;DHT22;18974;50.838;4.636;2023-09-19T05:23:12;15.00;99.90
32536;DHT22;18974;50.838;4.636;2023-09-19T05:25:39;15.10;99.90
32536;DHT22;18974;50.838;4.636;2023-09-19T05:28:06;15.10;99.90
32536;DHT22;18974;50.838;4.636;2023-09-19T05:30:33;15.00;99.90
32536;DHT22;18974;50.838;4.636;2023-09-19T05:32:59;15.00;99.90
32536;DHT22;18974;50.838;4.636;2023-09-19T05:35:25;15.00;99.90
32536;DHT22;18974;50.838;4.636;2023-09-19T05:37:52;15.00;99.90
32536;DHT22;18974;50.838;4.636;2023-09-19T05:40:18;14.90;99.90
32536;DHT22;18974;50.838;4.636;2023-09-19T05:42:44;14.90;99.90
32536;DHT22;18974;50.838;4.636;2023-09-19T05:45:11;15.00;99.90
32536;DHT22;18974;50.838;4.636;2023-09-19T05:47:40;15.00;99.90
32536;DHT22;18974;50.838;4.636;2023-09-19T05:50:11;15.00;99.90
32536;DHT22;18974;50.838;4.636;2023-09-19T05:52:37;15.00;99.90
32536;DHT22;18974;50.838;4.636;2023-09-19T05:55:07;15.00;99.90
32536;DHT22;18974;50.838;4.636;2023-09-19T05:57:37;15.10;99.90
32536;DHT22;18974;50.838;4.636;2023-09-19T06:00:08;15.10;99.90
32536;DHT22;18974;50.838;4.636;2023-09-19T06:02:40;15.00;99.90
32536;DHT22;18974;50.838;4.636;2023-09-19T06:05:06;15.10;99.90
32536;DHT22;18974;50.838;4.636;2023-09-19T06:07:36;15.20;99.90
32536;DHT22;18974;50.838;4.636;2023-09-19T06:10:05;15.20;99.90
32536;DHT22;18974;50.838;4.636;2023-09-19T06:12:32;15.10;99.90
32536;DHT22;18974;50.838;4.636;2023-09-19T06:15:03;15.10;99.90
32536;DHT22;18974;50.838;4.636;2023-09-19T06:17:31;15.10;99.90
32536;DHT22;18974;50.838;4.636;2023-09-19T06:19:56;15.20;99.90
32536;DHT22;18974;50.838;4.636;2023-09-19T06:22:22;15.20;99.90
32536;DHT22;18974;50.838;4.636;2023-09-19T06:24:50;15.20;99.90
32536;DHT22;18974;50.838;4.636;2023-09-19T06:27:15;15.20;99.90
32536;DHT22;18974;50.838;4.636;2023-09-19T06:29:41;15.30;99.90
32536;DHT22;18974;50.838;4.636;2023-09-19T06:32:10;15.40;99.90
32536;DHT22;18974;50.838;4.636;2023-09-19T06:34:37;15.40;99.90
32536;DHT22;18974;50.838;4.636;2023-09-19T06:37:10;15.50;99.90
32536;DHT22;18974;50.838;4.636;2023-09-19T06:39:35;15.50;99.90
32536;DHT22;18974;50.838;4.636;2023-09-19T06:42:01;15.60;99.90
32536;DHT22;18974;50.838;4.636;2023-09-19T06:44:27;15.60;99.90
32536;DHT22;18974;50.838;4.636;2023-09-19T06:46:55;15.60;99.90
32536;DHT22;18974;50.838;4.636;2023-09-19T06:49:20;15.60;99.90
32536;DHT22;18974;50.838;4.636;2023-09-19T06:51:46;15.70;99.90
32536;DHT22;18974;50.838;4.636;2023-09-19T06:54:12;15.70;99.90
32536;DHT22;18974;50.838;4.636;2023-09-19T06:56:37;15.80;99.90
32536;DHT22;18974;50.838;4.636;2023-09-19T06:59:03;15.80;99.90
32536;DHT22;18974;50.838;4.636;2023-09-19T07:01:31;15.80;99.90
32536;DHT22;18974;50.838;4.636;2023-09-19T07:03:57;15.80;99.90
32536;DHT22;18974;50.838;4.636;2023-09-19T07:06:23;15.90;99.90
32536;DHT22;18974;50.838;4.636;2023-09-19T07:08:49;15.90;99.90
32536;DHT22;18974;50.838;4.636;2023-09-19T07:11:18;16.00;99.90
32536;DHT22;18974;50.838;4.636;2023-09-19T07:13:43;16.10;99.90
32536;DHT22;18974;50.838;4.636;2023-09-19T07:16:09;16.00;99.90
32536;DHT22;18974;50.838;4.636;2023-09-19T07:18:52;16.00;99.90
32536;DHT22;18974;50.838;4.636;2023-09-19T07:21:18;16.00;99.90
32536;DHT22;18974;50.838;4.636;2023-09-19T07:23:44;16.00;99.90
32536;DHT22;18974;50.838;4.636;2023-09-19T07:26:09;16.10;99.90
32536;DHT22;18974;50.838;4.636;2023-09-19T07:28:35;16.20;99.90
32536;DHT22;18974;50.838;4.636;2023-09-19T07:31:02;16.20;99.90
32536;DHT22;18974;50.838;4.636;2023-09-19T07:33:36;16.40;99.90
32536;DHT22;18974;50.838;4.636;2023-09-19T07:36:02;16.40;99.90
32536;DHT22;18974;50.838;4.636;2023-09-19T07:38:28;16.50;99.90
32536;DHT22;18974;50.838;4.636;2023-09-19T07:41:00;16.60;99.90
32536;DHT22;18974;50.838;4.636;2023-09-19T07:43:26;16.60;99.90
32536;DHT22;18974;50.838;4.636;2023-09-19T07:45:52;16.70;99.90
32536;DHT22;18974;50.838;4.636;2023-09-19T07:48:17;16.70;99.90
32536;DHT22;18974;50.838;4.636;2023-09-19T07:50:43;16.80;99.90
32536;DHT22;18974;50.838;4.636;2023-09-19T07:53:09;16.80;99.90
32536;DHT22;18974;50.838;4.636;2023-09-19T07:55:35;16.90;99.90
32536;DHT22;18974;50.838;4.636;2023-09-19T07:58:00;16.80;99.90
32536;DHT22;18974;50.838;4.636;2023-09-19T08:00:30;16.70;99.90
32536;DHT22;18974;50.838;4.636;2023-09-19T08:02:57;16.80;99.90
32536;DHT22;18974;50.838;4.636;2023-09-19T08:05:23;16.80;99.90
32536;DHT22;18974;50.838;4.636;2023-09-19T08:07:49;16.90;99.90
32536;DHT22;18974;50.838;4.636;2023-09-19T08:10:15;16.90;99.90
32536;DHT22;18974;50.838;4.636;2023-09-19T08:12:45;16.90;99.90
32536;DHT22;18974;50.838;4.636;2023-09-19T08:15:15;16.90;99.90
32536;DHT22;18974;50.838;4.636;2023-09-19T08:17:41;16.90;99.90
32536;DHT22;18974;50.838;4.636;2023-09-19T08:20:09;16.90;99.90
32536;DHT22;18974;50.838;4.636;2023-09-19T08:22:48;17.00;99.90
32536;DHT22;18974;50.838;4.636;2023-09-19T08:25:15;17.10;99.90
32536;DHT22;18974;50.838;4.636;2023-09-19T08:27:48;17.20;99.90
32536;DHT22;18974;50.838;4.636;2023-09-19T08:30:16;17.30;99.90
32536;DHT22;18974;50.838;4.636;2023-09-19T08:32:41;17.50;99.90
32536;DHT22;18974;50.838;4.636;2023-09-19T08:35:09;17.50;99.90
32536;DHT22;18974;50.838;4.636;2023-09-19T08:37:35;17.50;99.90
32536;DHT22;18974;50.838;4.636;2023-09-19T08:40:00;17.60;99.90
32536;DHT22;18974;50.838;4.636;2023-09-19T08:42:26;17.60;99.90
32536;DHT22;18974;50.838;4.636;2023-09-19T08:44:52;17.70;99.90
32536;DHT22;18974;50.838;4.636;2023-09-19T08:47:32;17.60;99.90
32536;DHT22;18974;50.838;4.636;2023-09-19T08:50:07;17.70;99.90
32536;DHT22;18974;50.838;4.636;2023-09-19T08:52:43;17.80;99.90
32536;DHT22;18974;50.838;4.636;2023-09-19T08:55:13;17.90;99.90
32536;DHT22;18974;50.838;4.636;2023-09-19T08:57:46;17.90;99.90
32536;DHT22;18974;50.838;4.636;2023-09-19T09:00:15;18.00;99.90
32536;DHT22;18974;50.838;4.636;2023-09-19T09:02:43;18.00;99.90
32536;DHT22;18974;50.838;4.636;2023-09-19T09:05:11;18.10;99.90
32536;DHT22;18974;50.838;4.636;2023-09-19T09:07:40;18.40;99.90
32536;DHT22;18974;50.838;4.636;2023-09-19T09:10:07;18.50;99.90
32536;DHT22;18974;50.838;4.636;2023-09-19T09:12:34;18.60;99.90
32536;DHT22;18974;50.838;4.636;2023-09-19T09:15:02;18.60;99.90
32536;DHT22;18974;50.838;4.636;2023-09-19T09:17:29;18.80;99.90
32536;DHT22;18974;50.838;4.636;2023-09-19T09:19:55;18.70;99.90
32536;DHT22;18974;50.838;4.636;2023-09-19T09:22:21;18.80;99.90
32536;DHT22;18974;50.838;4.636;2023-09-19T09:24:57;18.90;99.90
32536;DHT22;18974;50.838;4.636;2023-09-19T09:27:30;19.00;99.90
32536;DHT22;18974;50.838;4.636;2023-09-19T09:29:58;19.00;99.90
32536;DHT22;18974;50.838;4.636;2023-09-19T09:32:27;19.00;99.90
32536;DHT22;18974;50.838;4.636;2023-09-19T09:35:01;18.90;99.90
32536;DHT22;18974;50.838;4.636;2023-09-19T09:37:28;18.80;99.90
32536;DHT22;18974;50.838;4.636;2023-09-19T09:40:00;18.90;99.90
32536;DHT22;18974;50.838;4.636;2023-09-19T09:42:45;18.90;99.90
32536;DHT22;18974;50.838;4.636;2023-09-19T09:45:19;19.10;99.90
32536;DHT22;18974;50.838;4.636;2023-09-19T09:47:54;19.10;99.90
32536;DHT22;18974;50.838;4.636;2023-09-19T09:50:35;18.90;99.90
32536;DHT22;18974;50.838;4.636;2023-09-19T09:53:29;19.00;99.90
32536;DHT22;18974;50.838;4.636;2023-09-19T09:56:05;19.00;99.90
32536;DHT22;18974;50.838;4.636;2023-09-19T09:58:51;18.90;99.90
32536;DHT22;18974;50.838;4.636;2023-09-19T10:01:20;18.90;99.90
32536;DHT22;18974;50.838;4.636;2023-09-19T10:03:47;18.90;99.90
32536;DHT22;18974;50.838;4.636;2023-09-19T10:06:17;19.10;99.90
32536;DHT22;18974;50.838;4.636;2023-09-19T10:09:03;19.10;99.90
32536;DHT22;18974;50.838;4.636;2023-09-19T10:11:59;19.20;99.90
32536;DHT22;18974;50.838;4.636;2023-09-19T10:14:30;19.10;99.90
32536;DHT22;18974;50.838;4.636;2023-09-19T10:16:58;19.00;99.90
32536;DHT22;18974;50.838;4.636;2023-09-19T10:19:36;19.00;99.90
32536;DHT22;18974;50.838;4.636;2023-09-19T10:22:02;19.10;99.90
32536;DHT22;18974;50.838;4.636;2023-09-19T10:24:30;19.20;99.90
32536;DHT22;18974;50.838;4.636;2023-09-19T10:26:57;19.30;99.90
32536;DHT22;18974;50.838;4.636;2023-09-19T10:29:24;19.20;99.90
32536;DHT22;18974;50.838;4.636;2023-09-19T10:31:57;19.00;99.90
32536;DHT22;18974;50.838;4.636;2023-09-19T10:34:25;19.10;99.90
32536;DHT22;18974;50.838;4.636;2023-09-19T10:36:52;19.30;99.90
32536;DHT22;18974;50.838;4.636;2023-09-19T10:39:19;19.50;99.90
32536;DHT22;18974;50.838;4.636;2023-09-19T10:41:53;19.60;99.90
32536;DHT22;18974;50.838;4.636;2023-09-19T10:44:25;19.60;99.90
32536;DHT22;18974;50.838;4.636;2023-09-19T10:46:52;19.60;99.90
32536;DHT22;18974;50.838;4.636;2023-09-19T10:49:19;19.70;99.90
32536;DHT22;18974;50.838;4.636;2023-09-19T10:51:47;19.80;99.90
32536;DHT22;18974;50.838;4.636;2023-09-19T10:54:17;19.80;99.90
32536;DHT22;18974;50.838;4.636;2023-09-19T10:56:49;19.90;99.90
32536;DHT22;18974;50.838;4.636;2023-09-19T10:59:18;19.80;99.90
32536;DHT22;18974;50.838;4.636;2023-09-19T11:01:47;19.80;99.90
32536;DHT22;18974;50.838;4.636;2023-09-19T11:04:32;19.80;99.90
32536;DHT22;18974;50.838;4.636;2023-09-19T11:07:05;20.00;99.90
32536;DHT22;18974;50.838;4.636;2023-09-19T11:09:54;20.20;99.90
32536;DHT22;18974;50.838;4.636;2023-09-19T11:12:49;20.30;99.90
32536;DHT22;18974;50.838;4.636;2023-09-19T11:24:28;20.40;99.90
32536;DHT22;18974;50.838;4.636;2023-09-19T11:27:15;20.80;99.90
32536;DHT22;18974;50.838;4.636;2023-09-19T11:29:43;20.80;99.90
32536;DHT22;18974;50.838;4.636;2023-09-19T11:32:09;20.80;99.90
32536;DHT22;18974;50.838;4.636;2023-09-19T11:34:42;20.90;99.90
32536;DHT22;18974;50.838;4.636;2023-09-19T11:39:37;20.90;99.90
32536;DHT22;18974;50.838;4.636;2023-09-19T11:42:45;21.10;99.90
32536;DHT22;18974;50.838;4.636;2023-09-19T11:48:23;21.00;99.90
32536;DHT22;18974;50.838;4.636;2023-09-19T11:50:51;20.80;99.90
32536;DHT22;18974;50.838;4.636;2023-09-19T11:53:17;20.80;99.90
32536;DHT22;18974;50.838;4.636;2023-09-19T11:55:45;20.80;99.90
32536;DHT22;18974;50.838;4.636;2023-09-19T11:58:17;21.00;99.90
32536;DHT22;18974;50.838;4.636;2023-09-19T12:00:45;20.90;99.90
32536;DHT22;18974;50.838;4.636;2023-09-19T12:03:12;21.10;99.90
32536;DHT22;18974;50.838;4.636;2023-09-19T12:05:40;21.30;99.90
32536;DHT22;18974;50.838;4.636;2023-09-19T12:08:07;21.20;99.90
32536;DHT22;18974;50.838;4.636;2023-09-19T12:10:50;21.20;99.90
32536;DHT22;18974;50.838;4.636;2023-09-19T12:13:21;21.20;99.90
32536;DHT22;18974;50.838;4.636;2023-09-19T12:15:47;21.20;99.90
32536;DHT22;18974;50.838;4.636;2023-09-19T12:18:31;21.20;99.90
32536;DHT22;18974;50.838;4.636;2023-09-19T12:20:57;21.20;99.90
32536;DHT22;18974;50.838;4.636;2023-09-19T12:23:24;20.90;99.90
32536;DHT22;18974;50.838;4.636;2023-09-19T12:25:51;20.80;99.90
32536;DHT22;18974;50.838;4.636;2023-09-19T12:28:18;20.60;99.90
32536;DHT22;18974;50.838;4.636;2023-09-19T12:30:44;20.40;99.90
32536;DHT22;18974;50.838;4.636;2023-09-19T12:33:17;20.50;99.90
32536;DHT22;18974;50.838;4.636;2023-09-19T12:35:45;20.60;99.90
32536;DHT22;18974;50.838;4.636;2023-09-19T12:38:11;20.50;99.90
32536;DHT22;18974;50.838;4.636;2023-09-19T12:40:38;20.50;99.90
32536;DHT22;18974;50.838;4.636;2023-09-19T12:43:08;20.50;99.90
32536;DHT22;18974;50.838;4.636;2023-09-19T12:45:35;20.30;99.90
32536;DHT22;18974;50.838;4.636;2023-09-19T12:51:11;20.20;99.90
32536;DHT22;18974;50.838;4.636;2023-09-19T12:53:42;20.10;99.90
32536;DHT22;18974;50.838;4.636;2023-09-19T12:56:13;20.20;99.90
32536;DHT22;18974;50.838;4.636;2023-09-19T12:58:53;20.40;99.90
32536;DHT22;18974;50.838;4.636;2023-09-19T13:01:26;20.60;99.90
32536;DHT22;18974;50.838;4.636;2023-09-19T13:06:40;20.70;99.90
32536;DHT22;18974;50.838;4.636;2023-09-19T13:09:10;20.80;99.90
32536;DHT22;18974;50.838;4.636;2023-09-19T13:11:37;20.90;99.90
32536;DHT22;18974;50.838;4.636;2023-09-19T13:14:24;20.90;99.90
32536;DHT22;18974;50.838;4.636;2023-09-19T13:17:06;20.90;99.90
32536;DHT22;18974;50.838;4.636;2023-09-19T13:19:51;20.80;99.90
32536;DHT22;18974;50.838;4.636;2023-09-19T13:22:45;20.80;99.90
32536;DHT22;18974;50.838;4.636;2023-09-19T13:25:16;20.80;99.90
32536;DHT22;18974;50.838;4.636;2023-09-19T13:27:52;20.80;99.90
32536;DHT22;18974;50.838;4.636;2023-09-19T13:30:20;20.80;99.90
32536;DHT22;18974;50.838;4.636;2023-09-19T13:32:46;20.80;99.90
32536;DHT22;18974;50.838;4.636;2023-09-19T13:35:13;20.90;99.90
32536;DHT22;18974;50.838;4.636;2023-09-19T13:37:40;21.00;99.90
32536;DHT22;18974;50.838;4.636;2023-09-19T13:40:11;20.90;99.90
32536;DHT22;18974;50.838;4.636;2023-09-19T13:42:37;20.80;99.90
32536;DHT22;18974;50.838;4.636;2023-09-19T13:45:04;20.90;99.90
32536;DHT22;18974;50.838;4.636;2023-09-19T13:47:30;20.90;99.90
32536;DHT22;18974;50.838;4.636;2023-09-19T13:49:56;20.80;99.90
32536;DHT22;18974;50.838;4.636;2023-09-19T13:52:22;20.60;99.90
32536;DHT22;18974;50.838;4.636;2023-09-19T13:54:52;20.60;99.90
32536;DHT22;18974;50.838;4.636;2023-09-19T13:57:18;20.50;99.90
32536;DHT22;18974;50.838;4.636;2023-09-19T13:59:44;20.50;99.90
32536;DHT22;18974;50.838;4.636;2023-09-19T14:02:10;20.50;99.90
32536;DHT22;18974;50.838;4.636;2023-09-19T14:04:35;20.60;99.90
32536;DHT22;18974;50.838;4.636;2023-09-19T14:07:01;20.70;99.90
32536;DHT22;18974;50.838;4.636;2023-09-19T14:09:27;20.60;99.90
32536;DHT22;18974;50.838;4.636;2023-09-19T14:11:53;20.80;99.90
32536;DHT22;18974;50.838;4.636;2023-09-19T14:14:19;20.80;99.90
32536;DHT22;18974;50.838;4.636;2023-09-19T14:16:47;20.70;99.90
32536;DHT22;18974;50.838;4.636;2023-09-19T14:19:13;20.70;99.90
32536;DHT22;18974;50.838;4.636;2023-09-19T14:21:42;20.60;99.90
32536;DHT22;18974;50.838;4.636;2023-09-19T14:24:07;20.50;99.90
32536;DHT22;18974;50.838;4.636;2023-09-19T14:26:35;20.50;99.90
32536;DHT22;18974;50.838;4.636;2023-09-19T14:29:01;20.50;99.90
32536;DHT22;18974;50.838;4.636;2023-09-19T14:31:27;20.50;99.90
32536;DHT22;18974;50.838;4.636;2023-09-19T14:33:57;20.50;99.90
32536;DHT22;18974;50.838;4.636;2023-09-19T14:36:25;20.50;99.90
32536;DHT22;18974;50.838;4.636;2023-09-19T14:38:54;20.40;99.90
32536;DHT22;18974;50.838;4.636;2023-09-19T14:41:20;20.50;99.90
32536;DHT22;18974;50.838;4.636;2023-09-19T14:43:46;20.60;99.90
32536;DHT22;18974;50.838;4.636;2023-09-19T14:46:12;20.70;99.90
32536;DHT22;18974;50.838;4.636;2023-09-19T14:48:39;20.80;99.90
32536;DHT22;18974;50.838;4.636;2023-09-19T14:51:06;20.90;99.90
32536;DHT22;18974;50.838;4.636;2023-09-19T14:53:34;20.90;99.90
32536;DHT22;18974;50.838;4.636;2023-09-19T14:56:01;20.80;99.90
32536;DHT22;18974;50.838;4.636;2023-09-19T14:58:29;20.70;99.90
32536;DHT22;18974;50.838;4.636;2023-09-19T15:01:09;20.50;99.90
32536;DHT22;18974;50.838;4.636;2023-09-19T15:03:38;20.60;99.90
32536;DHT22;18974;50.838;4.636;2023-09-19T15:06:09;20.70;99.90
32536;DHT22;18974;50.838;4.636;2023-09-19T15:08:38;20.70;99.90
32536;DHT22;18974;50.838;4.636;2023-09-19T15:11:04;20.60;99.90
32536;DHT22;18974;50.838;4.636;2023-09-19T15:13:34;20.50;99.90
32536;DHT22;18974;50.838;4.636;2023-09-19T15:16:03;20.40;99.90
32536;DHT22;18974;50.838;4.636;2023-09-19T15:18:30;20.50;99.90
32536;DHT22;18974;50.838;4.636;2023-09-19T15:20:56;20.40;99.90
32536;DHT22;18974;50.838;4.636;2023-09-19T15:23:22;20.40;99.90
32536;DHT22;18974;50.838;4.636;2023-09-19T15:25:51;20.40;99.90
32536;DHT22;18974;50.838;4.636;2023-09-19T15:28:18;20.30;99.90
32536;DHT22;18974;50.838;4.636;2023-09-19T15:30:44;20.30;99.90
32536;DHT22;18974;50.838;4.636;2023-09-19T15:33:10;20.30;99.90
32536;DHT22;18974;50.838;4.636;2023-09-19T15:35:36;20.20;99.90
32536;DHT22;18974;50.838;4.636;2023-09-19T15:38:03;20.20;99.90
32536;DHT22;18974;50.838;4.636;2023-09-19T15:40:29;20.10;99.90
32536;DHT22;18974;50.838;4.636;2023-09-19T15:42:55;20.10;99.90
32536;DHT22;18974;50.838;4.636;2023-09-19T15:45:24;20.20;99.90
32536;DHT22;18974;50.838;4.636;2023-09-19T15:47:50;20.10;99.90
32536;DHT22;18974;50.838;4.636;2023-09-19T15:50:16;20.10;99.90
32536;DHT22;18974;50.838;4.636;2023-09-19T15:52:43;20.00;99.90
32536;DHT22;18974;50.838;4.636;2023-09-19T15:55:08;19.90;99.90
32536;DHT22;18974;50.838;4.636;2023-09-19T15:57:36;19.90;99.90
32536;DHT22;18974;50.838;4.636;2023-09-19T16:00:03;20.00;99.90
32536;DHT22;18974;50.838;4.636;2023-09-19T16:02:32;20.00;99.90
32536;DHT22;18974;50.838;4.636;2023-09-19T16:04:58;20.10;99.90
32536;DHT22;18974;50.838;4.636;2023-09-19T16:07:24;20.10;99.90
32536;DHT22;18974;50.838;4.636;2023-09-19T16:09:49;20.10;99.90